createdAt,value
2023-09-21T00:00:42.519Z,100294.53
2023-09-21T00:03:45.897Z,100288.91
2023-09-21T00:06:48.410Z,100285.78
2023-09-21T00:09:50.079Z,100284.13
2023-09-21T00:12:52.359Z,100281.19
2023-09-21T00:15:57.395Z,100285.38
2023-09-21T00:18:59.434Z,100285.38
2023-09-21T00:22:01.710Z,100286.62
2023-09-21T00:25:05.276Z,100290.00
2023-09-21T00:28:07.796Z,100283.69
2023-09-21T00:31:09.788Z,100292.34
2023-09-21T00:34:11.746Z,100284.59
2023-09-21T00:37:13.886Z,100286.31
2023-09-21T00:40:23.438Z,100289.03
2023-09-21T00:43:25.949Z,100284.63
2023-09-21T00:46:28.394Z,100282.13
2023-09-21T00:49:30.555Z,100269.53
2023-09-21T00:52:32.441Z,100268.72
2023-09-21T00:55:35.241Z,100262.84
2023-09-21T00:58:40.555Z,100262.44
2023-09-21T01:01:42.977Z,100259.72
2023-09-21T01:04:44.874Z,100256.16
2023-09-21T01:07:46.859Z,100257.00
2023-09-21T01:10:49.816Z,100260.78
2023-09-21T01:13:52.422Z,100257.22
2023-09-21T01:16:54.186Z,100258.28
2023-09-21T01:19:55.870Z,100251.16
2023-09-21T01:23:08.105Z,100249.47
2023-09-21T01:26:11.038Z,100249.72
2023-09-21T01:29:13.498Z,100256.25
2023-09-21T01:32:15.408Z,100243.69
2023-09-21T01:35:17.231Z,100248.06
2023-09-21T01:38:19.478Z,100247.41
2023-09-21T01:41:21.229Z,100244.69
2023-09-21T01:44:23.292Z,100244.53
2023-09-21T01:47:25.658Z,100251.03
2023-09-21T01:50:29.190Z,100237.19
2023-09-21T01:53:31.498Z,100238.62
2023-09-21T01:56:33.818Z,100233.16
2023-09-21T01:59:35.633Z,100230.66
2023-09-21T02:02:37.823Z,100237.41
2023-09-21T02:05:41.489Z,100223.16
2023-09-21T02:08:44.323Z,100225.25
2023-09-21T02:11:46.353Z,100227.34
2023-09-21T02:14:48.426Z,100223.19
2023-09-21T02:17:50.834Z,100223.41
2023-09-21T02:20:55.540Z,100206.87
2023-09-21T02:23:57.868Z,100220.69
2023-09-21T02:26:59.911Z,100209.75
2023-09-21T02:30:02.211Z,100206.44
2023-09-21T02:33:05.308Z,100209.59
2023-09-21T02:36:14.556Z,100207.28
2023-09-21T02:39:16.412Z,100205.00
2023-09-21T02:42:18.804Z,100209.84
2023-09-21T02:45:23.222Z,100202.50
2023-09-21T02:48:25.307Z,100202.53
2023-09-21T02:51:27.613Z,100201.91
2023-09-21T02:54:29.266Z,100199.41
2023-09-21T02:57:31.574Z,100200.66
2023-09-21T03:00:34.331Z,100205.28
2023-09-21T03:03:36.365Z,100201.72
2023-09-21T03:06:38.718Z,100195.88
2023-09-21T03:09:40.382Z,100187.91
2023-09-21T03:12:42.320Z,100188.12
2023-09-21T03:15:45.488Z,100192.94
2023-09-21T03:18:48.040Z,100192.94
2023-09-21T03:21:50.437Z,100196.94
2023-09-21T03:24:52.730Z,100192.53
2023-09-21T03:27:56.716Z,100199.87
2023-09-21T03:30:58.720Z,100195.66
2023-09-21T03:34:00.810Z,100189.81
2023-09-21T03:37:02.453Z,100191.09
2023-09-21T03:40:04.483Z,100195.50
2023-09-21T03:43:07.710Z,100185.25
2023-09-21T03:46:09.964Z,100186.72
2023-09-21T03:49:14.340Z,100185.28
2023-09-21T03:52:16.215Z,100173.13
2023-09-21T03:55:18.441Z,100163.50
2023-09-21T03:58:20.193Z,100166.88
2023-09-21T04:01:21.959Z,100165.00
2023-09-21T04:04:24.170Z,100171.66
2023-09-21T04:07:26.360Z,100170.59
2023-09-21T04:10:28.751Z,100166.81
2023-09-21T04:13:30.988Z,100150.06
2023-09-21T04:16:32.896Z,100159.69
2023-09-21T04:19:37.247Z,100163.00
2023-09-21T04:22:41.940Z,100161.66
2023-09-21T04:25:45.271Z,100167.47
2023-09-21T04:28:47.116Z,100155.56
2023-09-21T04:31:49.345Z,100154.97
2023-09-21T04:34:51.353Z,100165.03
2023-09-21T04:37:53.811Z,100155.56
2023-09-21T04:40:56.497Z,100153.91
2023-09-21T04:43:58.605Z,100149.91
2023-09-21T04:47:00.759Z,100136.72
2023-09-21T04:50:02.685Z,100133.16
2023-09-21T04:53:04.654Z,100145.25
2023-09-21T04:56:07.184Z,100165.03
2023-09-21T04:59:09.594Z,100177.31
2023-09-21T05:02:11.324Z,100175.38
2023-09-21T05:05:13.918Z,100185.81
2023-09-21T05:08:30.472Z,100176.56
2023-09-21T05:11:33.043Z,100121.78
2023-09-21T05:14:35.304Z,100166.09
2023-09-21T05:17:37.188Z,100175.75
2023-09-21T05:20:39.129Z,100168.69
2023-09-21T05:23:41.159Z,100166.84
2023-09-21T05:26:43.138Z,100175.94
2023-09-21T05:29:46.199Z,100167.38
2023-09-21T05:32:48.182Z,100174.72
2023-09-21T05:35:52.108Z,100172.00
2023-09-21T05:38:53.929Z,100171.34
2023-09-21T05:41:56.228Z,100164.84
2023-09-21T05:44:58.382Z,100171.78
2023-09-21T05:48:00.745Z,100173.03
2023-09-21T05:51:18.609Z,100175.72
2023-09-21T05:54:22.144Z,100178.00
2023-09-21T05:57:25.201Z,100173.13
2023-09-21T06:00:27.815Z,100169.53
2023-09-21T06:03:29.924Z,100171.94
2023-09-21T06:06:31.677Z,100172.56
2023-09-21T06:09:33.904Z,100184.97
2023-09-21T06:12:35.899Z,100180.72
2023-09-21T06:15:41.027Z,100179.50
2023-09-21T06:18:43.607Z,100187.25
2023-09-21T06:21:45.601Z,100180.00
2023-09-21T06:24:47.946Z,100176.44
2023-09-21T06:27:49.811Z,100175.16
2023-09-21T06:30:52.675Z,100173.09
2023-09-21T06:33:54.945Z,100178.75
2023-09-21T06:36:57.625Z,100173.28
2023-09-21T06:40:00.698Z,100177.50
2023-09-21T06:43:03.005Z,100174.31
2023-09-21T06:46:06.396Z,100132.72
2023-09-21T06:49:11.270Z,100163.41
2023-09-21T06:52:16.654Z,100162.31
2023-09-21T06:55:19.096Z,100150.94
2023-09-21T06:58:22.081Z,100143.22
2023-09-21T07:01:24.939Z,100135.97
2023-09-21T07:04:29.451Z,100134.75
2023-09-21T07:07:31.379Z,100135.09
2023-09-21T07:10:33.906Z,100144.72
2023-09-21T07:13:35.555Z,100144.97
2023-09-21T07:16:37.339Z,100145.00
2023-09-21T07:19:39.778Z,100131.28
2023-09-21T07:22:41.516Z,100135.25
2023-09-21T07:25:43.530Z,100136.03
2023-09-21T07:28:45.581Z,100139.03
2023-09-21T07:31:48.647Z,100123.91
2023-09-21T07:34:50.669Z,100135.87
2023-09-21T07:37:52.486Z,100131.53
2023-09-21T07:40:55.074Z,100127.72
2023-09-21T07:43:57.290Z,100142.91
2023-09-21T07:46:59.923Z,100138.66
2023-09-21T07:50:02.291Z,100140.50
2023-09-21T07:53:04.223Z,100142.37
2023-09-21T07:56:06.254Z,100133.19
2023-09-21T07:59:08.737Z,100141.09
2023-09-21T08:02:11.449Z,100143.34
2023-09-21T08:05:15.043Z,100145.34
2023-09-21T08:08:18.011Z,100147.75
2023-09-21T08:11:20.236Z,100166.19
2023-09-21T08:14:22.051Z,100175.47
2023-09-21T08:17:23.906Z,100169.47
2023-09-21T08:20:28.613Z,100161.81
2023-09-21T08:23:31.688Z,100151.38
2023-09-21T08:26:33.739Z,100149.84
2023-09-21T08:29:36.278Z,100161.09
2023-09-21T08:32:38.296Z,100177.69
2023-09-21T08:35:43.164Z,100179.78
2023-09-21T08:38:48.836Z,100185.47
2023-09-21T08:41:51.973Z,100195.25
2023-09-21T08:44:55.014Z,100197.25
2023-09-21T08:47:57.323Z,100195.97
2023-09-21T08:51:00.371Z,100192.19
2023-09-21T08:54:04.892Z,100190.66
2023-09-21T08:57:10.717Z,100184.44
2023-09-21T09:00:13.600Z,100177.09
2023-09-21T09:09:29.783Z,100160.81
2023-09-21T09:12:31.865Z,100155.91
2023-09-21T09:15:35.142Z,100148.22
2023-09-21T09:18:37.623Z,100150.59
2023-09-21T09:21:41.107Z,100141.87
2023-09-21T09:24:46.158Z,100129.63
2023-09-21T09:27:59.831Z,100134.50
2023-09-21T09:31:01.711Z,100130.47
2023-09-21T09:34:03.663Z,100134.91
2023-09-21T09:37:06.830Z,100118.34
2023-09-21T09:40:10.224Z,100122.59
2023-09-21T09:43:16.520Z,100124.91
2023-09-21T09:46:21.223Z,100112.63
2023-09-21T09:49:27.508Z,100111.28
2023-09-21T09:52:29.998Z,100111.06
2023-09-21T09:55:33.548Z,100108.72
2023-09-21T09:58:39.141Z,100109.69
2023-09-21T10:01:41.738Z,100117.31
2023-09-21T10:04:46.722Z,100114.25
2023-09-21T10:07:51.250Z,100100.72
2023-09-21T10:10:58.737Z,100102.16
2023-09-21T10:14:01.651Z,100108.37
2023-09-21T10:17:06.282Z,100114.44
2023-09-21T10:20:13.048Z,100105.84
2023-09-21T10:23:18.418Z,100107.56
2023-09-21T10:26:20.995Z,100098.72
2023-09-21T10:32:42.814Z,100074.53
2023-09-21T10:35:49.056Z,100080.41
2023-09-21T10:39:15.623Z,100080.50
2023-09-21T10:49:21.995Z,100073.88
2023-09-21T10:52:33.257Z,100060.56
2023-09-21T10:55:35.786Z,100054.66
2023-09-21T10:58:37.745Z,100042.50
2023-09-21T11:01:40.052Z,100052.25
2023-09-21T11:04:43.074Z,100050.94
2023-09-21T11:07:48.693Z,100033.13
2023-09-21T11:10:50.853Z,100025.97
2023-09-21T11:13:53.111Z,100020.22
2023-09-21T11:16:58.145Z,100018.31
2023-09-21T11:20:02.068Z,100004.44
2023-09-21T11:23:04.467Z,100003.63
2023-09-21T11:26:06.405Z,99994.22
2023-09-21T11:29:09.390Z,99982.78
2023-09-21T11:32:15.007Z,99982.00
2023-09-21T11:35:19.294Z,99975.03
2023-09-21T11:38:21.648Z,99973.72
2023-09-21T11:41:23.750Z,99975.12
2023-09-21T11:44:30.432Z,99963.50
2023-09-21T11:47:32.541Z,99961.47
2023-09-21T11:50:35.813Z,99954.03
2023-09-21T11:53:38.266Z,99945.81
2023-09-21T11:56:40.479Z,99943.19
2023-09-21T11:59:42.407Z,99929.12
2023-09-21T12:02:44.657Z,99926.56
2023-09-21T12:05:46.653Z,99921.97
2023-09-21T12:08:48.546Z,99916.53
2023-09-21T12:11:50.811Z,99915.09
2023-09-21T12:14:52.990Z,99909.50
2023-09-21T12:17:54.875Z,99905.81
2023-09-21T12:20:57.120Z,99903.53
2023-09-21T12:24:02.541Z,99898.91
2023-09-21T12:27:19.359Z,99901.56
2023-09-21T12:30:21.296Z,99890.38
2023-09-21T12:33:42.224Z,99884.56
2023-09-21T12:36:45.503Z,99885.41
2023-09-21T12:39:47.398Z,99885.44
2023-09-21T12:42:49.386Z,99871.34
2023-09-21T12:45:51.417Z,99861.16
2023-09-21T12:48:56.496Z,99868.88
2023-09-21T12:51:58.803Z,99861.16
2023-09-21T12:55:00.807Z,99864.72
2023-09-21T12:58:03.554Z,99866.09
2023-09-21T13:01:05.365Z,99858.94
2023-09-21T13:04:07.652Z,99846.81
2023-09-21T13:07:10.335Z,99838.25
2023-09-21T13:10:14.146Z,99839.63
2023-09-21T13:13:16.584Z,99842.94
2023-09-21T13:16:18.304Z,99838.81
2023-09-21T13:19:20.589Z,99823.84
2023-09-21T13:22:25.528Z,99829.69
2023-09-21T13:25:27.747Z,99823.63
2023-09-21T13:28:30.256Z,99822.81
2023-09-21T13:31:32.011Z,99824.75
2023-09-21T13:34:36.215Z,99817.03
2023-09-21T13:37:40.030Z,99807.94
2023-09-21T13:40:45.495Z,99798.25
2023-09-21T13:43:48.487Z,99799.38
2023-09-21T13:46:52.248Z,99799.94
2023-09-21T13:49:54.504Z,99800.75
2023-09-21T13:52:56.433Z,99793.84
2023-09-21T13:55:58.069Z,99792.72
2023-09-21T13:58:59.808Z,99795.22
2023-09-21T14:02:02.382Z,99789.97
2023-09-21T14:05:04.534Z,99775.09
2023-09-21T14:08:07.154Z,99775.66
2023-09-21T14:11:09.750Z,99778.41
2023-09-21T14:14:12.315Z,99766.25
2023-09-21T14:17:14.574Z,99761.56
2023-09-21T14:20:17.115Z,99756.31
2023-09-21T14:23:18.808Z,99761.56
2023-09-21T14:26:20.849Z,99765.41
2023-09-21T14:29:22.531Z,99761.56
2023-09-21T14:32:25.222Z,99760.16
2023-09-21T14:35:27.469Z,99756.03
2023-09-21T14:38:29.118Z,99746.94
2023-09-21T14:41:31.796Z,99745.56
2023-09-21T14:44:34.620Z,99741.41
2023-09-21T14:47:36.912Z,99738.12
2023-09-21T14:50:39.182Z,99741.41
2023-09-21T14:53:41.174Z,99732.59
2023-09-21T14:56:43.191Z,99729.84
2023-09-21T14:59:44.980Z,99730.38
2023-09-21T15:02:47.748Z,99727.34
2023-09-21T15:05:50.058Z,99720.47
2023-09-21T15:08:51.926Z,99714.41
2023-09-21T15:11:54.148Z,99710.25
2023-09-21T15:14:56.932Z,99706.41
2023-09-21T15:17:59.709Z,99699.25
2023-09-21T15:21:01.894Z,99686.03
2023-09-21T15:24:03.874Z,99686.84
2023-09-21T15:27:06.052Z,99683.25
2023-09-21T15:30:08.335Z,99677.50
2023-09-21T15:33:22.867Z,99676.66
2023-09-21T15:36:32.887Z,99672.50
2023-09-21T15:39:35.403Z,99659.84
2023-09-21T15:42:37.270Z,99655.97
2023-09-21T15:45:39.227Z,99654.88
2023-09-21T15:48:43.025Z,99651.84
2023-09-21T15:51:46.367Z,99651.84
2023-09-21T15:54:48.373Z,99644.41
2023-09-21T15:58:02.726Z,99646.03
2023-09-21T16:01:04.925Z,99655.66
2023-09-21T16:04:09.697Z,99646.56
2023-09-21T16:07:11.576Z,99649.59
2023-09-21T16:10:14.072Z,99650.41
2023-09-21T16:13:16.044Z,99653.16
2023-09-21T16:16:18.609Z,99652.03
2023-09-21T16:19:20.857Z,99656.44
2023-09-21T16:22:23.055Z,99655.06
2023-09-21T16:25:25.202Z,99648.44
2023-09-21T16:28:26.889Z,99647.91
2023-09-21T16:31:29.460Z,99643.78
2023-09-21T16:34:31.593Z,99642.63
2023-09-21T16:37:33.276Z,99631.91
2023-09-21T16:40:36.727Z,99645.13
2023-09-21T16:43:38.976Z,99632.72
2023-09-21T16:46:43.501Z,99633.25
2023-09-21T16:49:45.195Z,99632.72
2023-09-21T16:52:47.848Z,99630.50
2023-09-21T16:55:50.284Z,99637.38
2023-09-21T16:58:52.499Z,99628.84
2023-09-21T17:01:54.715Z,99631.28
2023-09-21T17:04:56.524Z,99627.16
2023-09-21T17:07:58.941Z,99631.84
2023-09-21T17:11:01.126Z,99625.22
2023-09-21T17:14:02.834Z,99624.91
2023-09-21T17:17:05.014Z,99626.00
2023-09-21T17:20:08.101Z,99628.75
2023-09-21T17:23:10.298Z,99624.34
2023-09-21T17:26:12.189Z,99617.47
2023-09-21T17:29:13.922Z,99615.53
2023-09-21T17:32:15.947Z,99617.19
2023-09-21T17:35:18.014Z,99605.88
2023-09-21T17:38:20.456Z,99618.53
2023-09-21T17:41:22.543Z,99620.72
2023-09-21T17:44:24.486Z,99617.66
2023-09-21T17:47:26.767Z,99624.81
2023-09-21T17:50:29.076Z,99622.34
2023-09-21T17:53:31.494Z,99628.06
2023-09-21T17:56:36.254Z,99668.47
2023-09-21T17:59:38.256Z,99659.91
2023-09-21T18:02:41.042Z,99675.78
2023-09-21T18:05:45.111Z,99662.84
2023-09-21T18:08:47.714Z,99669.44
2023-09-21T18:11:50.043Z,99666.44
2023-09-21T18:14:52.194Z,99670.28
2023-09-21T18:17:53.865Z,99670.84
2023-09-21T18:20:55.686Z,99675.22
2023-09-21T18:23:58.167Z,99671.59
2023-09-21T18:27:00.698Z,99677.28
2023-09-21T18:30:03.204Z,99677.53
2023-09-21T18:33:07.804Z,99680.75
2023-09-21T18:36:09.822Z,99675.47
2023-09-21T18:39:12.204Z,99664.44
2023-09-21T18:42:14.499Z,99667.13
2023-09-21T18:45:18.757Z,99667.94
2023-09-21T18:48:22.089Z,99669.25
2023-09-21T18:51:24.639Z,99670.06
2023-09-21T18:54:27.536Z,99662.56
2023-09-21T18:57:29.966Z,99671.09
2023-09-21T19:00:32.253Z,99677.38
2023-09-21T19:03:35.522Z,99669.91
2023-09-21T19:06:37.500Z,99676.19
2023-09-21T19:09:39.787Z,99671.47
2023-09-21T19:12:42.391Z,99649.34
2023-09-21T19:15:45.212Z,99673.00
2023-09-21T19:18:47.882Z,99663.88
2023-09-21T19:21:50.141Z,99663.81
2023-09-21T19:24:52.800Z,99668.69
2023-09-21T19:27:54.898Z,99668.09
2023-09-21T19:30:56.997Z,99674.13
2023-09-21T19:33:59.290Z,99672.97
2023-09-21T19:37:00.956Z,99680.31
2023-09-21T19:40:02.806Z,99682.47
2023-09-21T19:43:04.854Z,99695.38
2023-09-21T19:46:06.953Z,99686.25
2023-09-21T19:49:08.601Z,99692.50
2023-09-21T19:52:10.403Z,99689.69
2023-09-21T19:55:13.094Z,99697.84
2023-09-21T19:58:15.011Z,99692.91
2023-09-21T20:01:17.139Z,99707.16
2023-09-21T20:04:19.437Z,99706.25
2023-09-21T20:07:22.886Z,99714.31
2023-09-21T20:10:24.788Z,99720.94
2023-09-21T20:13:26.923Z,99732.41
2023-09-21T20:16:28.639Z,99727.09
2023-09-21T20:19:30.627Z,99722.28
2023-09-21T20:22:32.418Z,99712.81
2023-09-21T20:25:34.256Z,99715.25
2023-09-21T20:28:35.943Z,99703.87
2023-09-21T20:31:38.309Z,99711.53
2023-09-21T20:34:40.471Z,99705.97
2023-09-21T20:37:42.714Z,99705.41
2023-09-21T20:40:44.393Z,99706.16
2023-09-21T20:43:46.238Z,99703.91
2023-09-21T20:46:49.417Z,99694.78
2023-09-21T20:49:51.752Z,99686.81
2023-09-21T20:52:53.697Z,99686.00
2023-09-21T20:55:59.031Z,99682.44
2023-09-21T20:59:00.957Z,99678.88
2023-09-21T21:02:03.250Z,99677.19
2023-09-21T21:05:07.005Z,99676.59
2023-09-21T21:08:09.276Z,99667.06
2023-09-21T21:11:10.992Z,99668.38
2023-09-21T21:14:13.305Z,99661.25
2023-09-21T21:17:15.011Z,99663.16
2023-09-21T21:20:16.830Z,99659.03
2023-09-21T21:23:18.454Z,99661.75
2023-09-21T21:26:23.357Z,99656.84
2023-09-21T21:29:25.605Z,99653.03
2023-09-21T21:32:28.785Z,99658.50
2023-09-21T21:35:30.820Z,99657.13
2023-09-21T21:38:32.932Z,99658.87
2023-09-21T21:41:34.759Z,99666.72
2023-09-21T21:44:37.117Z,99661.41
2023-09-21T21:47:39.414Z,99668.38
2023-09-21T21:50:41.440Z,99657.94
2023-09-21T21:53:46.058Z,99661.16
2023-09-21T21:56:49.298Z,99657.31
2023-09-21T21:59:51.274Z,99657.31
2023-09-21T22:02:53.866Z,99665.47
2023-09-21T22:05:55.789Z,99670.25
2023-09-21T22:08:57.691Z,99662.44
2023-09-21T22:11:59.638Z,99667.84
2023-09-21T22:15:02.800Z,99662.84
2023-09-21T22:18:05.739Z,99659.22
2023-09-21T22:21:09.375Z,99658.84
2023-09-21T22:24:12.017Z,99654.97
2023-09-21T22:27:14.426Z,99659.53
2023-09-21T22:30:16.780Z,99651.78
2023-09-21T22:33:18.936Z,99654.53
2023-09-21T22:36:20.983Z,99662.97
2023-09-21T22:39:22.655Z,99649.56
2023-09-21T22:42:26.615Z,99654.69
2023-09-21T22:45:33.053Z,99623.34
2023-09-21T22:48:35.077Z,99652.91
2023-09-21T22:51:37.476Z,99649.81
2023-09-21T22:54:39.521Z,99656.25
2023-09-21T22:57:41.625Z,99658.41
2023-09-21T23:00:55.286Z,99662.69
2023-09-21T23:03:57.741Z,99655.72
2023-09-21T23:06:59.982Z,99669.59
2023-09-21T23:10:02.229Z,99662.41
2023-09-21T23:13:04.467Z,99672.13
2023-09-21T23:16:07.786Z,99663.72
2023-09-21T23:19:09.754Z,99661.34
2023-09-21T23:22:11.585Z,99663.75
2023-09-21T23:25:14.416Z,99672.87
2023-09-21T23:28:16.920Z,99675.53
2023-09-21T23:31:18.779Z,99659.25
2023-09-21T23:34:20.789Z,99670.66
2023-09-21T23:37:22.531Z,99675.41
2023-09-21T23:40:24.317Z,99670.97
2023-09-21T23:43:26.519Z,99677.19
2023-09-21T23:46:28.778Z,99674.44
2023-09-21T23:49:30.753Z,99668.38
2023-09-21T23:52:32.701Z,99672.16
2023-09-21T23:55:34.415Z,99678.12
2023-09-21T23:58:37.006Z,99671.00
